Terminal Aerodrome Forecast
Issued by NWS

Home | Current Version | Previous Version | Text Only | Print | Product List | Glossary On
Versions: 1 2 3 4 5 6 7 8 9 10 11 12 13
000
FTUS44 KSJT 261700
TAFBBD
TAF
KBBD 261724Z 2618/2718 33011KT P6SM SKC
     FM270000 01005KT P6SM SKC
     FM271400 08005KT P6SM SKC=

USA.gov is the U.S. government's official web portal to all federal, state and local government web resources and services.